createdAt,value
2023-01-05T00:49:33.579Z,8.46
2023-01-05T05:34:06.601Z,8.52
2023-01-05T05:54:10.154Z,8.61
2023-01-05T06:14:12.847Z,8.67
2023-01-05T06:34:15.274Z,9.00
2023-01-05T06:54:17.897Z,8.97
2023-01-05T07:14:20.590Z,6.55
2023-01-05T07:34:23.024Z,7.16
2023-01-05T07:54:26.595Z,7.44
2023-01-05T08:14:32.214Z,7.31
2023-01-05T08:55:01.007Z,7.61
2023-01-05T09:15:03.689Z,8.11
2023-01-05T09:35:06.151Z,8.51
2023-01-05T09:55:08.859Z,8.75
2023-01-05T10:15:12.527Z,8.98
2023-01-05T10:35:27.148Z,9.66
2023-01-05T10:55:37.607Z,9.59
2023-01-05T11:15:40.320Z,9.96
2023-01-05T11:35:43.359Z,10.01
2023-01-05T11:55:46.110Z,9.54
2023-01-05T12:15:48.748Z,9.49
2023-01-05T12:35:51.222Z,6.88
2023-01-05T12:55:53.840Z,8.17
2023-01-05T13:15:56.425Z,8.74
2023-01-05T13:35:58.927Z,5.69
2023-01-05T13:56:01.640Z,5.47
2023-01-05T14:16:04.264Z,5.48
2023-01-05T14:36:06.765Z,6.16
2023-01-05T14:56:09.411Z,6.44
2023-01-05T15:36:15.357Z,6.77
2023-01-05T15:56:17.975Z,6.75
2023-01-05T16:16:49.893Z,7.18
2023-01-05T16:36:42.841Z,7.33
2023-01-05T16:56:46.107Z,7.09
2023-01-05T17:16:49.117Z,7.08
2023-01-05T17:36:51.619Z,7.19
2023-01-05T17:56:54.101Z,7.25
2023-01-05T18:16:56.616Z,7.24
2023-01-05T18:37:05.724Z,7.19
2023-01-05T18:57:13.066Z,7.09
2023-01-05T19:17:15.921Z,7.03
2023-01-05T19:37:18.376Z,6.36
2023-01-05T19:57:21.002Z,6.38
2023-01-05T20:17:23.625Z,5.58
2023-01-05T20:37:26.109Z,4.74
2023-01-05T20:57:29.422Z,5.16
2023-01-05T21:17:32.082Z,5.37
2023-01-05T21:37:34.554Z,5.35
2023-01-05T21:57:37.352Z,5.25
2023-01-05T22:17:42.470Z,5.15
2023-01-05T22:37:45.606Z,4.91
2023-01-05T22:57:48.381Z,4.85
2023-01-05T23:17:51.563Z,4.75
2023-01-05T23:37:53.954Z,4.56
2023-01-05T23:57:56.500Z,4.38
